Grete Maersk — OYCY2 — position and weather

sailwx.info

Track history (hours):
 
Tides and Currents Weather Stations Pressure Air Temp Water Temp Dewpoint Dewpoint Depression Visibility Wind Speed Wind Dir Waves Ship Positions

Grete Maersk

Last reported at 2017-Apr-23 03:24 UTC. Time now 2017-Apr-30 20:35 UTC.
Position N 01°53' E 102°21'.

MMSI: 218824136.

Date/timePositionNaut miles runAvg speedWind from/ knotsBaromVisibWave heightAir tempDewpointWater temp
2017-Apr-23 03:24N 01°53' E 102°21'1222.8
2017-Apr-23 02:53N 01°48' E 102°32'922.6
2017-Apr-23 02:30N 01°45' E 102°40'5321.8
2017-Apr-23 00:03N 01°15' E 103°24'221.0
2017-Apr-22 23:58N 01°14' E 103°26'715.3
2017-Apr-22 23:30N 01°16' E 103°32'4 8.9
2017-Apr-22 23:00N 01°20' E 103°33'0 0.4
2017-Apr-22 22:30N 01°20' E 103°33'0 0.0
2017-Apr-22 21:39N 01°20' E 103°33'0 0.0
2017-Apr-22 21:15N 01°20' E 103°33'0 0.0
2017-Apr-22 20:57N 01°20' E 103°33'0 0.0
2017-Apr-22 20:15N 01°20' E 103°33'0 0.0
2017-Apr-22 19:45N 01°20' E 103°33'0 0.0
2017-Apr-22 19:30N 01°20' E 103°33'0 0.0
2017-Apr-22 18:57N 01°20' E 103°33'0 0.0
2017-Apr-22 18:27N 01°20' E 103°33'0 0.0
2017-Apr-22 17:57N 01°20' E 103°33'0 0.0
2017-Apr-22 17:15N 01°20' E 103°33'0 0.0
2017-Apr-22 16:54N 01°20' E 103°33'0 0.0
2017-Apr-22 16:27N 01°20' E 103°33'0 0.0
2017-Apr-22 15:57N 01°20' E 103°33'0 0.0
2017-Apr-22 15:21N 01°20' E 103°33'0 0.0
2017-Apr-22 14:51N 01°20' E 103°33'0 0.0
2017-Apr-22 14:30N 01°20' E 103°33'0 0.0
2017-Apr-22 13:29N 01°20' E 103°33'0 0.0
2017-Apr-22 12:56N 01°20' E 103°33'0 0.0
2017-Apr-22 12:29N 01°20' E 103°33'0 0.0
2017-Apr-22 11:59N 01°20' E 103°33'0 0.0
2017-Apr-22 11:23N 01°20' E 103°33'0 0.0
2017-Apr-22 10:44N 01°20' E 103°33'0 0.0
2017-Apr-22 10:15N 01°20' E 103°33'0 0.0
2017-Apr-22 10:00N 01°20' E 103°33'1 1.9
2017-Apr-22 09:30N 01°19' E 103°33'5 9.4
2017-Apr-22 09:00N 01°15' E 103°32'4 7.4
2017-Apr-22 08:30N 01°11' E 103°32'1 1.0
2017-Apr-22 07:54N 01°10' E 103°33'0 0.6
2017-Apr-22 07:30N 01°10' E 103°33'1 1.6
2017-Apr-22 07:00N 01°10' E 103°34'0 0.8
2017-Apr-22 06:30N 01°10' E 103°33'0 0.7
2017-Apr-22 06:00N 01°10' E 103°33'0 0.6
2017-Apr-22 05:30N 01°10' E 103°33'0 0.5
2017-Apr-22 05:00N 01°09' E 103°33'0 0.4
2017-Apr-22 04:11N 01°09' E 103°33'0 0.4
2017-Apr-22 03:58N 01°09' E 103°33'1 1.2
2017-Apr-22 03:29N 01°09' E 103°33'0 0.4
2017-Apr-22 03:00N 01°09' E 103°33'0 0.8
2017-Apr-22 02:30N 01°09' E 103°33'0 0.7
2017-Apr-22 01:51N 01°10' E 103°33'0 0.4
2017-Apr-22 01:30N 01°10' E 103°33'0 0.7
2017-Apr-22 00:59N 01°10' E 103°33'2 4.2
2017-Apr-22 00:30N 01°10' E 103°35'3 6.3
2017-Apr-21 23:59N 01°11' E 103°38'2 4.3
2017-Apr-21 23:30N 01°11' E 103°40'3 5.0
2017-Apr-21 23:00N 01°09' E 103°42'2 4.9
2017-Apr-21 22:30N 01°08' E 103°45'3 5.9
2017-Apr-21 22:00N 01°10' E 103°47'2 4.8
2017-Apr-21 21:30N 01°12' E 103°49'4 7.9
2017-Apr-21 21:00N 01°15' E 103°46'2 4.7
2017-Apr-21 20:30N 01°17' E 103°46'0 0.3
2017-Apr-21 19:58N 01°17' E 103°46'0 0.0
2017-Apr-21 19:28N 01°17' E 103°46'0 0.0
2017-Apr-21 18:58N 01°17' E 103°46'0 0.0
2017-Apr-21 18:28N 01°17' E 103°46'0 0.0
2017-Apr-21 17:58N 01°17' E 103°46'0 0.0
2017-Apr-21 17:25N 01°17' E 103°46'0 0.0
2017-Apr-21 16:58N 01°17' E 103°46'0 0.0
2017-Apr-21 16:28N 01°17' E 103°46'0 0.0
2017-Apr-21 15:58N 01°17' E 103°46'0 0.0
2017-Apr-21 15:28N 01°17' E 103°46'0 0.0
2017-Apr-21 14:58N 01°17' E 103°46'0 0.0
2017-Apr-21 14:28N 01°17' E 103°46'0 0.0
2017-Apr-21 13:28N 01°17' E 103°46'0 0.0
2017-Apr-21 12:58N 01°17' E 103°46'0 0.0
2017-Apr-21 12:28N 01°17' E 103°46'0 0.0
2017-Apr-21 11:58N 01°17' E 103°46'0 0.0
2017-Apr-21 11:28N 01°17' E 103°46'0 0.0
2017-Apr-21 10:58N 01°17' E 103°46'0 0.0
2017-Apr-21 10:28N 01°17' E 103°46'0 0.0
2017-Apr-21 09:58N 01°17' E 103°46'0 0.0
2017-Apr-21 09:28N 01°17' E 103°46'0 0.0
2017-Apr-21 08:55N 01°17' E 103°46'0 0.0
2017-Apr-21 08:28N 01°17' E 103°46'0 0.0
2017-Apr-21 07:49N 01°17' E 103°46'0 0.0
2017-Apr-21 07:28N 01°17' E 103°46'0 0.0
2017-Apr-21 06:58N 01°17' E 103°46'0 0.0
2017-Apr-21 06:28N 01°17' E 103°46'0 0.0
2017-Apr-21 05:58N 01°17' E 103°46'0 0.0
2017-Apr-21 05:28N 01°17' E 103°46'0 0.0
2017-Apr-21 04:58N 01°17' E 103°46'0 0.0
2017-Apr-21 04:28N 01°17' E 103°46'0 0.0
2017-Apr-21 03:58N 01°17' E 103°46'0 0.0
2017-Apr-21 03:28N 01°17' E 103°46'0 0.0
2017-Apr-21 02:52N 01°17' E 103°46'0 0.0
2017-Apr-21 02:28N 01°17' E 103°46'0 0.0
2017-Apr-21 01:58N 01°17' E 103°46'0 0.0
2017-Apr-21 01:28N 01°17' E 103°46'0 0.0
2017-Apr-21 00:58N 01°17' E 103°46'0 0.0
2017-Apr-21 00:28N 01°17' E 103°46'0 0.0
2017-Apr-21 00:00N 01°17' E 103°46'1 1.2
2017-Apr-20 23:30N 01°17' E 103°45'1 2.7
2017-Apr-20 23:00N 01°16' E 103°46'4 8.3
2017-Apr-20 22:31N 01°13' E 103°48'5 9.2
2017-Apr-20 22:00N 01°13' E 103°53'611.0
2017-Apr-20 21:30N 01°15' E 103°58'714.4
2017-Apr-20 21:00N 01°16' E 104°05'  
Track history (hours):
 
Tides and Currents Weather Stations Pressure Air Temp Water Temp Dewpoint Dewpoint Depression Visibility Wind Speed Wind Dir Waves Ship Positions

Grete Maersk

Last reported at 2017-Apr-23 03:24 UTC. Time now 2017-Apr-30 20:35 UTC.
Position N 01°53' E 102°21'.

MMSI: 218824136.

Date/timePositionNaut miles runAvg speedWind from/ knotsBaromVisibWave heightAir tempDewpointWater temp
2017-Apr-23 03:24N 01°53' E 102°21'1222.8
2017-Apr-23 02:53N 01°48' E 102°32'922.6
2017-Apr-23 02:30N 01°45' E 102°40'5321.8
2017-Apr-23 00:03N 01°15' E 103°24'221.0
2017-Apr-22 23:58N 01°14' E 103°26'715.3
2017-Apr-22 23:30N 01°16' E 103°32'4 8.9
2017-Apr-22 23:00N 01°20' E 103°33'0 0.4
2017-Apr-22 22:30N 01°20' E 103°33'0 0.0
2017-Apr-22 21:39N 01°20' E 103°33'0 0.0
2017-Apr-22 21:15N 01°20' E 103°33'0 0.0
2017-Apr-22 20:57N 01°20' E 103°33'0 0.0
2017-Apr-22 20:15N 01°20' E 103°33'0 0.0
2017-Apr-22 19:45N 01°20' E 103°33'0 0.0
2017-Apr-22 19:30N 01°20' E 103°33'0 0.0
2017-Apr-22 18:57N 01°20' E 103°33'0 0.0
2017-Apr-22 18:27N 01°20' E 103°33'0 0.0
2017-Apr-22 17:57N 01°20' E 103°33'0 0.0
2017-Apr-22 17:15N 01°20' E 103°33'0 0.0
2017-Apr-22 16:54N 01°20' E 103°33'0 0.0
2017-Apr-22 16:27N 01°20' E 103°33'0 0.0
2017-Apr-22 15:57N 01°20' E 103°33'0 0.0
2017-Apr-22 15:21N 01°20' E 103°33'0 0.0
2017-Apr-22 14:51N 01°20' E 103°33'0 0.0
2017-Apr-22 14:30N 01°20' E 103°33'0 0.0
2017-Apr-22 13:29N 01°20' E 103°33'0 0.0
2017-Apr-22 12:56N 01°20' E 103°33'0 0.0
2017-Apr-22 12:29N 01°20' E 103°33'0 0.0
2017-Apr-22 11:59N 01°20' E 103°33'0 0.0
2017-Apr-22 11:23N 01°20' E 103°33'0 0.0
2017-Apr-22 10:44N 01°20' E 103°33'0 0.0
2017-Apr-22 10:15N 01°20' E 103°33'0 0.0
2017-Apr-22 10:00N 01°20' E 103°33'1 1.9
2017-Apr-22 09:30N 01°19' E 103°33'5 9.4
2017-Apr-22 09:00N 01°15' E 103°32'4 7.4
2017-Apr-22 08:30N 01°11' E 103°32'1 1.0
2017-Apr-22 07:54N 01°10' E 103°33'0 0.6
2017-Apr-22 07:30N 01°10' E 103°33'1 1.6
2017-Apr-22 07:00N 01°10' E 103°34'0 0.8
2017-Apr-22 06:30N 01°10' E 103°33'0 0.7
2017-Apr-22 06:00N 01°10' E 103°33'0 0.6
2017-Apr-22 05:30N 01°10' E 103°33'0 0.5
2017-Apr-22 05:00N 01°09' E 103°33'0 0.4
2017-Apr-22 04:11N 01°09' E 103°33'0 0.4
2017-Apr-22 03:58N 01°09' E 103°33'1 1.2
2017-Apr-22 03:29N 01°09' E 103°33'0 0.4
2017-Apr-22 03:00N 01°09' E 103°33'0 0.8
2017-Apr-22 02:30N 01°09' E 103°33'0 0.7
2017-Apr-22 01:51N 01°10' E 103°33'0 0.4
2017-Apr-22 01:30N 01°10' E 103°33'0 0.7
2017-Apr-22 00:59N 01°10' E 103°33'2 4.2
2017-Apr-22 00:30N 01°10' E 103°35'3 6.3
2017-Apr-21 23:59N 01°11' E 103°38'2 4.3
2017-Apr-21 23:30N 01°11' E 103°40'3 5.0
2017-Apr-21 23:00N 01°09' E 103°42'2 4.9
2017-Apr-21 22:30N 01°08' E 103°45'3 5.9
2017-Apr-21 22:00N 01°10' E 103°47'2 4.8
2017-Apr-21 21:30N 01°12' E 103°49'4 7.9
2017-Apr-21 21:00N 01°15' E 103°46'2 4.7
2017-Apr-21 20:30N 01°17' E 103°46'0 0.3
2017-Apr-21 19:58N 01°17' E 103°46'0 0.0
2017-Apr-21 19:28N 01°17' E 103°46'0 0.0
2017-Apr-21 18:58N 01°17' E 103°46'0 0.0
2017-Apr-21 18:28N 01°17' E 103°46'0 0.0
2017-Apr-21 17:58N 01°17' E 103°46'0 0.0
2017-Apr-21 17:25N 01°17' E 103°46'0 0.0
2017-Apr-21 16:58N 01°17' E 103°46'0 0.0
2017-Apr-21 16:28N 01°17' E 103°46'0 0.0
2017-Apr-21 15:58N 01°17' E 103°46'0 0.0
2017-Apr-21 15:28N 01°17' E 103°46'0 0.0
2017-Apr-21 14:58N 01°17' E 103°46'0 0.0
2017-Apr-21 14:28N 01°17' E 103°46'0 0.0
2017-Apr-21 13:28N 01°17' E 103°46'0 0.0
2017-Apr-21 12:58N 01°17' E 103°46'0 0.0
2017-Apr-21 12:28N 01°17' E 103°46'0 0.0
2017-Apr-21 11:58N 01°17' E 103°46'0 0.0
2017-Apr-21 11:28N 01°17' E 103°46'0 0.0
2017-Apr-21 10:58N 01°17' E 103°46'0 0.0
2017-Apr-21 10:28N 01°17' E 103°46'0 0.0
2017-Apr-21 09:58N 01°17' E 103°46'0 0.0
2017-Apr-21 09:28N 01°17' E 103°46'0 0.0
2017-Apr-21 08:55N 01°17' E 103°46'0 0.0
2017-Apr-21 08:28N 01°17' E 103°46'0 0.0
2017-Apr-21 07:49N 01°17' E 103°46'0 0.0
2017-Apr-21 07:28N 01°17' E 103°46'0 0.0
2017-Apr-21 06:58N 01°17' E 103°46'0 0.0
2017-Apr-21 06:28N 01°17' E 103°46'0 0.0
2017-Apr-21 05:58N 01°17' E 103°46'0 0.0
2017-Apr-21 05:28N 01°17' E 103°46'0 0.0
2017-Apr-21 04:58N 01°17' E 103°46'0 0.0
2017-Apr-21 04:28N 01°17' E 103°46'0 0.0
2017-Apr-21 03:58N 01°17' E 103°46'0 0.0
2017-Apr-21 03:28N 01°17' E 103°46'0 0.0
2017-Apr-21 02:52N 01°17' E 103°46'0 0.0
2017-Apr-21 02:28N 01°17' E 103°46'0 0.0
2017-Apr-21 01:58N 01°17' E 103°46'0 0.0
2017-Apr-21 01:28N 01°17' E 103°46'0 0.0
2017-Apr-21 00:58N 01°17' E 103°46'0 0.0
2017-Apr-21 00:28N 01°17' E 103°46'0 0.0
2017-Apr-21 00:00N 01°17' E 103°46'1 1.2
2017-Apr-20 23:30N 01°17' E 103°45'1 2.7
2017-Apr-20 23:00N 01°16' E 103°46'4 8.3
2017-Apr-20 22:31N 01°13' E 103°48'5 9.2
2017-Apr-20 22:00N 01°13' E 103°53'611.0
2017-Apr-20 21:30N 01°15' E 103°58'714.4
2017-Apr-20 21:00N 01°16' E 104°05'  

Dump ship's entire track history